Time;durP1;ratioP1;P1;durP2;ratioP2;P2;SDS_P1;SDS_P2;PMS_P1;PMS_P2;Temp;Humidity;BMP_temperature;BMP_pressure;BME280_temperature;BME280_humidity;BME280_pressure;Samples;Min_cycle;Max_cycle;Signal;HPM_P1;HPM_P2
2023/08/20 00:00:07;;;;;;;6.75;6.15;;;26.20;68.90;;;;;;5005714;28;20030;-66
2023/08/20 00:02:35;;;;;;;8.35;6.13;;;26.20;69.20;;;;;;4984534;28;20038;-65
2023/08/20 00:05:03;;;;;;;7.25;6.03;;;26.20;69.20;;;;;;5005364;28;20683;-59
2023/08/20 00:07:30;;;;;;;6.40;5.80;;;26.20;69.40;;;;;;5005201;28;20038;-65
2023/08/20 00:09:56;;;;;;;10.40;6.35;;;26.20;69.20;;;;;;5007479;28;20042;-66
2023/08/20 00:12:22;;;;;;;6.85;5.85;;;26.20;69.20;;;;;;5005957;28;20392;-64
2023/08/20 00:15:04;;;;;;;7.70;6.20;;;26.20;69.20;;;;;;5005104;28;20088;-67
2023/08/20 00:17:30;;;;;;;7.53;6.03;;;26.20;69.50;;;;;;4999068;28;20052;-67
2023/08/20 00:19:56;;;;;;;7.78;5.82;;;26.20;69.10;;;;;;5007251;28;20033;-65
2023/08/20 00:22:23;;;;;;;7.90;5.93;;;26.20;69.40;;;;;;5001702;28;20037;-65
2023/08/20 00:24:49;;;;;;;7.35;5.90;;;26.20;69.40;;;;;;5004818;28;20038;-67
2023/08/20 00:27:15;;;;;;;7.82;6.40;;;26.20;69.40;;;;;;5006643;28;20121;-66
2023/08/20 00:29:40;;;;;;;7.35;5.97;;;26.20;69.20;;;;;;5002324;28;20124;-63
2023/08/20 00:32:06;;;;;;;8.02;6.10;;;26.20;69.30;;;;;;4999710;28;20309;-66
2023/08/20 00:34:32;;;;;;;8.82;6.22;;;26.20;69.40;;;;;;4985777;28;20030;-64
2023/08/20 00:36:57;;;;;;;8.45;6.00;;;26.20;69.10;;;;;;4986208;28;20469;-65
2023/08/20 00:39:22;;;;;;;7.32;6.10;;;26.20;69.30;;;;;;5003694;28;20030;-65
2023/08/20 00:41:48;;;;;;;8.13;6.05;;;26.20;69.00;;;;;;5004005;28;20113;-66
2023/08/20 00:44:13;;;;;;;7.60;6.38;;;26.20;69.00;;;;;;5002893;28;20038;-66
2023/08/20 00:46:39;;;;;;;6.28;5.68;;;26.20;69.10;;;;;;5001804;28;20029;-66
2023/08/20 00:49:05;;;;;;;7.18;6.15;;;26.20;69.00;;;;;;4998553;28;20030;-65
2023/08/20 00:51:33;;;;;;;7.20;6.15;;;26.20;69.30;;;;;;5000377;28;20052;-66
2023/08/20 00:54:00;;;;;;;10.43;6.68;;;26.20;69.20;;;;;;5006028;28;20022;-66
2023/08/20 00:56:26;;;;;;;7.57;6.72;;;26.20;69.20;;;;;;5004378;28;20041;-62
2023/08/20 00:58:53;;;;;;;6.93;6.22;;;26.20;69.30;;;;;;4993900;28;20362;-66
2023/08/20 01:01:19;;;;;;;7.82;6.95;;;26.20;69.30;;;;;;5011610;28;20033;-65
2023/08/20 01:03:44;;;;;;;7.50;6.55;;;26.20;69.50;;;;;;5003765;28;20025;-66
2023/08/20 01:06:43;;;;;;;7.85;6.40;;;26.10;69.50;;;;;;5003404;28;20836;-64
2023/08/20 01:09:35;;;;;;;11.65;6.28;;;26.20;69.70;;;;;;5003528;28;20038;-66
2023/08/20 01:12:03;;;;;;;7.65;6.57;;;26.10;69.80;;;;;;5001413;28;20497;-65
2023/08/20 01:14:29;;;;;;;6.32;5.82;;;26.10;69.90;;;;;;5009280;28;20041;-65
2023/08/20 01:16:55;;;;;;;9.23;6.28;;;26.10;70.10;;;;;;5000236;28;20483;-64
2023/08/20 01:19:22;;;;;;;13.27;6.70;;;26.10;70.10;;;;;;5004486;28;20520;-66
2023/08/20 01:22:15;;;;;;;9.07;7.13;;;26.10;69.90;;;;;;5004441;28;20014;-66
2023/08/20 01:25:04;;;;;;;10.18;7.40;;;26.10;70.20;;;;;;5002342;28;20595;-67
2023/08/20 01:27:42;;;;;;;9.30;7.05;;;26.10;70.20;;;;;;5007905;28;20504;-66
2023/08/20 01:30:09;;;;;;;7.18;6.47;;;26.10;70.00;;;;;;5006417;28;20060;-67
2023/08/20 01:32:36;;;;;;;8.75;6.20;;;26.10;70.00;;;;;;4997558;28;20061;-66
2023/08/20 01:35:02;;;;;;;7.28;6.63;;;26.20;69.90;;;;;;5003872;28;20112;-66
2023/08/20 01:37:28;;;;;;;7.15;6.45;;;26.10;69.90;;;;;;5007265;28;20044;-65
2023/08/20 01:39:53;;;;;;;8.35;6.32;;;26.20;70.10;;;;;;4997668;28;20034;-66
2023/08/20 01:42:19;;;;;;;8.60;6.97;;;26.20;70.00;;;;;;5003148;28;21425;-65
2023/08/20 01:44:44;;;;;;;10.15;6.60;;;26.20;70.10;;;;;;5010798;28;20026;-66
2023/08/20 01:47:10;;;;;;;7.65;5.93;;;26.20;70.10;;;;;;5006740;28;20069;-66
2023/08/20 01:49:35;;;;;;;9.43;6.75;;;26.20;70.00;;;;;;5002010;28;20116;-65
2023/08/20 01:52:01;;;;;;;7.65;6.78;;;26.20;70.10;;;;;;4988052;28;20126;-66
2023/08/20 01:54:27;;;;;;;8.82;5.93;;;26.20;70.10;;;;;;5004472;28;20088;-66
2023/08/20 01:56:52;;;;;;;7.85;6.20;;;26.20;69.90;;;;;;5005172;28;20470;-66
2023/08/20 01:59:18;;;;;;;7.97;7.15;;;26.20;69.80;;;;;;5003987;28;20133;-65
2023/08/20 02:01:44;;;;;;;8.50;6.78;;;26.20;69.90;;;;;;5005070;28;20749;-64
2023/08/20 02:04:09;;;;;;;6.72;6.10;;;26.20;70.20;;;;;;5005322;28;20021;-65
2023/08/20 02:06:35;;;;;;;9.40;6.35;;;26.20;70.00;;;;;;5004315;28;20030;-65
2023/08/20 02:09:00;;;;;;;6.75;6.15;;;26.20;70.10;;;;;;5000122;28;20436;-68
2023/08/20 02:11:26;;;;;;;7.10;6.40;;;26.20;70.10;;;;;;5003399;28;20076;-63
2023/08/20 02:13:52;;;;;;;8.00;6.35;;;26.20;70.10;;;;;;5004041;28;20481;-66
2023/08/20 02:16:17;;;;;;;9.02;7.00;;;26.20;70.40;;;;;;4988457;28;20030;-66
2023/08/20 02:18:43;;;;;;;8.35;6.18;;;26.20;70.30;;;;;;5004847;28;20037;-67
2023/08/20 02:21:08;;;;;;;7.88;6.85;;;26.20;70.40;;;;;;5002979;28;20510;-65
2023/08/20 02:23:34;;;;;;;7.25;6.55;;;26.20;70.50;;;;;;5006056;28;20033;-65
2023/08/20 02:26:00;;;;;;;7.57;6.80;;;26.20;70.30;;;;;;5011341;28;20080;-66
2023/08/20 02:28:26;;;;;;;8.73;6.35;;;26.20;70.50;;;;;;5007937;28;20555;-64
2023/08/20 02:30:52;;;;;;;7.07;6.18;;;26.20;70.20;;;;;;5011586;28;20038;-62
2023/08/20 02:33:17;;;;;;;8.70;5.93;;;26.20;70.60;;;;;;5000375;28;20489;-66
2023/08/20 02:35:43;;;;;;;8.18;6.82;;;26.20;70.70;;;;;;5010520;28;20030;-63
2023/08/20 02:38:09;;;;;;;9.15;6.80;;;26.20;70.90;;;;;;5005103;28;20022;-68
2023/08/20 02:40:42;;;;;;;7.72;7.03;;;26.20;71.00;;;;;;5006639;28;20365;-66
2023/08/20 02:43:08;;;;;;;8.88;7.15;;;26.20;70.90;;;;;;5006874;28;20056;-64
2023/08/20 02:45:40;;;;;;;9.35;6.68;;;26.20;70.80;;;;;;5009493;28;20380;-65
2023/08/20 02:48:06;;;;;;;7.38;6.68;;;26.20;70.90;;;;;;5004807;28;20517;-66
2023/08/20 02:50:31;;;;;;;8.75;5.95;;;26.20;70.90;;;;;;5010153;28;20068;-65
2023/08/20 02:52:57;;;;;;;10.98;6.72;;;26.20;71.10;;;;;;5011569;28;20104;-66
2023/08/20 02:55:22;;;;;;;8.75;6.75;;;26.20;71.00;;;;;;5008743;28;20038;-65
2023/08/20 02:57:48;;;;;;;7.47;6.60;;;26.20;71.00;;;;;;5010354;28;20117;-66
2023/08/20 03:00:14;;;;;;;7.15;6.28;;;26.20;71.00;;;;;;5009386;28;20029;-66
2023/08/20 03:02:41;;;;;;;8.02;7.10;;;26.20;70.80;;;;;;5008539;28;20040;-63
2023/08/20 03:05:10;;;;;;;7.60;6.65;;;26.20;70.90;;;;;;5011995;28;20032;-64
2023/08/20 03:07:35;;;;;;;8.40;6.20;;;26.20;70.90;;;;;;5008421;28;20385;-67
2023/08/20 03:10:02;;;;;;;6.95;6.35;;;26.20;70.90;;;;;;5006238;28;20033;-65
2023/08/20 03:12:28;;;;;;;6.97;6.25;;;26.20;70.90;;;;;;5012299;28;20117;-65
2023/08/20 03:14:54;;;;;;;9.60;6.50;;;26.20;71.10;;;;;;4996061;28;20041;-65
2023/08/20 03:17:20;;;;;;;11.07;6.95;;;26.20;71.40;;;;;;5007483;28;20384;-64
2023/08/20 03:19:56;;;;;;;7.97;6.75;;;26.20;71.40;;;;;;5001461;28;20029;-64
2023/08/20 03:22:23;;;;;;;8.98;6.82;;;26.10;72.10;;;;;;5007461;28;20594;-64
2023/08/20 03:24:48;;;;;;;9.63;6.82;;;26.10;72.30;;;;;;4995917;28;20042;-65
2023/08/20 03:27:14;;;;;;;11.65;7.65;;;26.10;72.00;;;;;;5003569;28;20068;-66
2023/08/20 03:29:39;;;;;;;9.65;6.60;;;26.10;72.20;;;;;;5007623;28;20120;-65
2023/08/20 03:32:05;;;;;;;8.85;6.97;;;26.10;72.10;;;;;;5008231;28;20080;-66
2023/08/20 03:34:30;;;;;;;9.00;6.70;;;26.10;72.10;;;;;;5001505;28;20038;-66
2023/08/20 03:36:56;;;;;;;7.00;6.40;;;26.10;72.00;;;;;;4996979;28;20121;-63
2023/08/20 03:39:21;;;;;;;8.02;7.18;;;26.10;72.20;;;;;;4997826;28;20031;-66
2023/08/20 03:41:47;;;;;;;9.40;6.93;;;26.10;72.30;;;;;;4999687;28;20020;-69
2023/08/20 03:44:12;;;;;;;10.77;6.65;;;26.10;72.50;;;;;;5000596;28;20034;-65
2023/08/20 03:46:38;;;;;;;8.10;6.90;;;26.10;72.50;;;;;;5006515;28;20058;-65
2023/08/20 03:49:03;;;;;;;8.10;6.78;;;26.10;72.40;;;;;;4999245;28;20049;-68
2023/08/20 03:51:29;;;;;;;11.40;6.75;;;26.10;72.40;;;;;;4990015;28;20041;-64
2023/08/20 03:53:54;;;;;;;7.78;6.97;;;26.10;72.30;;;;;;4999436;28;20026;-65
2023/08/20 03:56:20;;;;;;;9.05;7.97;;;26.00;72.70;;;;;;4995166;28;20042;-65
2023/08/20 03:58:46;;;;;;;11.35;7.15;;;26.00;72.80;;;;;;4993811;28;20026;-67
2023/08/20 04:01:11;;;;;;;8.10;7.00;;;26.00;72.70;;;;;;4998610;28;20117;-66
2023/08/20 04:03:37;;;;;;;8.55;7.10;;;26.00;72.80;;;;;;5004912;28;20365;-65
2023/08/20 04:06:02;;;;;;;8.30;7.45;;;26.00;72.70;;;;;;4996816;28;20043;-66
2023/08/20 04:08:29;;;;;;;9.40;7.63;;;26.00;72.80;;;;;;4995147;28;20038;-65
2023/08/20 04:10:55;;;;;;;7.45;6.68;;;26.00;72.80;;;;;;4993294;28;20497;-66
2023/08/20 04:13:20;;;;;;;10.82;7.82;;;26.00;72.70;;;;;;4999956;28;20065;-66
2023/08/20 04:15:46;;;;;;;6.85;6.15;;;26.00;72.70;;;;;;4993539;28;20441;-63
2023/08/20 04:18:12;;;;;;;8.38;7.13;;;26.00;72.80;;;;;;5003930;28;20026;-65
2023/08/20 04:20:37;;;;;;;8.40;7.47;;;26.00;72.80;;;;;;5001396;28;20392;-64
2023/08/20 04:23:03;;;;;;;11.35;6.88;;;25.90;73.00;;;;;;5000213;28;20017;-66
2023/08/20 04:25:28;;;;;;;8.68;6.88;;;26.00;73.00;;;;;;4993657;28;20053;-66
2023/08/20 04:27:54;;;;;;;7.40;5.97;;;26.00;72.90;;;;;;5007741;28;20057;-65
2023/08/20 04:30:19;;;;;;;12.73;7.68;;;26.00;72.90;;;;;;5007260;28;20385;-65
2023/08/20 04:32:45;;;;;;;9.57;6.53;;;26.00;72.90;;;;;;4992913;28;20038;-65
2023/08/20 04:35:11;;;;;;;7.53;6.50;;;26.00;72.90;;;;;;5007173;28;20112;-66
2023/08/20 04:37:36;;;;;;;8.75;7.50;;;26.00;72.80;;;;;;4999809;28;20626;-66
2023/08/20 04:40:05;;;;;;;7.50;6.78;;;26.00;72.90;;;;;;5006047;28;20022;-66
2023/08/20 04:42:31;;;;;;;8.75;7.35;;;26.00;72.90;;;;;;5003914;28;20026;-66
2023/08/20 04:44:57;;;;;;;8.10;7.30;;;26.00;72.90;;;;;;5004336;28;20635;-65
2023/08/20 04:47:22;;;;;;;8.70;7.60;;;26.00;72.90;;;;;;4999273;28;20054;-66
2023/08/20 04:49:48;;;;;;;9.85;6.82;;;26.00;73.00;;;;;;5003752;28;20037;-66
2023/08/20 04:52:13;;;;;;;11.70;7.35;;;26.00;73.00;;;;;;4997711;28;20026;-67
2023/08/20 04:54:39;;;;;;;8.55;7.00;;;26.00;73.00;;;;;;4999442;28;20034;-67
2023/08/20 04:57:04;;;;;;;11.40;7.93;;;26.00;73.00;;;;;;4991020;28;20486;-65
2023/08/20 04:59:30;;;;;;;9.10;6.82;;;26.00;73.10;;;;;;5004376;28;20018;-64
2023/08/20 05:01:55;;;;;;;8.65;7.20;;;26.00;73.10;;;;;;5000597;28;20133;-68
2023/08/20 05:04:21;;;;;;;7.75;6.57;;;26.00;73.10;;;;;;5000413;28;20671;-66
2023/08/20 05:06:46;;;;;;;9.38;7.85;;;26.00;73.20;;;;;;4997360;28;20030;-62
2023/08/20 05:09:12;;;;;;;6.30;5.70;;;25.90;73.60;;;;;;4977960;28;20084;-67
2023/08/20 05:11:37;;;;;;;8.07;6.90;;;25.80;73.50;;;;;;5005782;28;20036;-61
2023/08/20 05:14:03;;;;;;;9.73;8.20;;;25.70;73.90;;;;;;5006704;28;20022;-65
2023/08/20 05:16:28;;;;;;;10.40;8.85;;;25.70;74.30;;;;;;5005791;28;20121;-64
2023/08/20 05:18:54;;;;;;;13.65;9.52;;;25.60;74.60;;;;;;5005975;28;20417;-67
2023/08/20 05:21:19;;;;;;;10.07;8.65;;;25.50;74.90;;;;;;4992242;28;20034;-65
2023/08/20 05:23:45;;;;;;;12.45;9.13;;;25.50;75.10;;;;;;4997383;28;20046;-65
2023/08/20 05:26:10;;;;;;;11.35;9.50;;;25.50;75.20;;;;;;5006304;28;20424;-66
2023/08/20 05:28:36;;;;;;;12.50;9.85;;;25.50;75.30;;;;;;4998480;28;20521;-65
2023/08/20 05:31:01;;;;;;;14.02;9.60;;;25.50;75.50;;;;;;5001242;28;20030;-64
2023/08/20 05:33:27;;;;;;;12.95;10.27;;;25.50;75.60;;;;;;4996822;28;20026;-65
2023/08/20 05:35:53;;;;;;;14.13;11.18;;;25.40;75.70;;;;;;4996007;28;20046;-68
2023/08/20 05:38:18;;;;;;;11.18;9.98;;;25.40;75.80;;;;;;4995590;28;20112;-65
2023/08/20 05:40:44;;;;;;;14.02;10.52;;;25.40;75.80;;;;;;4999623;28;20033;-65
2023/08/20 05:43:09;;;;;;;11.93;9.98;;;25.40;75.80;;;;;;4988788;28;20026;-65
2023/08/20 05:45:35;;;;;;;11.60;10.25;;;25.40;75.80;;;;;;5002943;28;20026;-66
2023/08/20 05:48:01;;;;;;;12.52;10.35;;;25.40;75.80;;;;;;4999905;28;20057;-67
2023/08/20 05:50:27;;;;;;;15.60;11.10;;;25.40;75.90;;;;;;5005409;28;20048;-65
2023/08/20 05:52:52;;;;;;;16.25;11.60;;;25.40;76.10;;;;;;4988373;28;20054;-65
2023/08/20 05:55:18;;;;;;;11.27;10.05;;;25.40;76.20;;;;;;4978669;28;20032;-65
2023/08/20 05:57:44;;;;;;;13.52;11.30;;;25.40;76.30;;;;;;4998053;28;20068;-65
2023/08/20 06:00:10;;;;;;;15.32;11.93;;;25.40;76.40;;;;;;5004559;28;20026;-65
2023/08/20 06:02:37;;;;;;;13.27;10.65;;;25.40;76.60;;;;;;4990247;28;20031;-66
2023/08/20 06:05:04;;;;;;;17.48;11.68;;;25.40;76.40;;;;;;4995439;28;20015;-65
2023/08/20 06:07:30;;;;;;;12.68;10.98;;;25.40;76.20;;;;;;4988432;28;20430;-65
2023/08/20 06:09:56;;;;;;;13.68;10.77;;;25.40;76.30;;;;;;4998788;28;20128;-65
2023/08/20 06:12:23;;;;;;;13.35;10.73;;;25.40;76.20;;;;;;4991912;28;20462;-66
2023/08/20 06:14:48;;;;;;;13.90;11.25;;;25.50;76.10;;;;;;4998866;28;20128;-65
2023/08/20 06:17:14;;;;;;;14.20;11.30;;;25.50;76.10;;;;;;4992728;28;20377;-68
2023/08/20 06:19:39;;;;;;;12.68;10.88;;;25.50;76.20;;;;;;4989138;28;20028;-66
2023/08/20 06:22:05;;;;;;;14.82;12.02;;;25.50;76.30;;;;;;4982717;28;20026;-63
2023/08/20 06:24:30;;;;;;;14.88;11.25;;;25.50;76.30;;;;;;4994515;28;20034;-65
2023/08/20 06:26:56;;;;;;;13.30;10.18;;;25.50;76.30;;;;;;5004213;28;20022;-65
2023/08/20 06:29:21;;;;;;;12.45;11.18;;;25.50;76.10;;;;;;5005698;28;20052;-65
2023/08/20 06:31:48;;;;;;;18.17;10.77;;;25.60;76.20;;;;;;5003456;28;20105;-65
2023/08/20 06:34:13;;;;;;;14.65;11.48;;;25.60;76.20;;;;;;5005320;28;20026;-62
2023/08/20 06:36:39;;;;;;;13.35;11.10;;;25.60;76.00;;;;;;5004660;28;20169;-66
2023/08/20 06:39:04;;;;;;;9.68;8.65;;;25.60;76.00;;;;;;4996766;28;20060;-67
2023/08/20 06:41:30;;;;;;;11.32;10.13;;;25.60;76.00;;;;;;5006536;28;20133;-66
2023/08/20 06:43:55;;;;;;;14.40;11.45;;;25.70;75.80;;;;;;5010725;28;20030;-65
2023/08/20 06:46:21;;;;;;;14.43;10.05;;;25.70;76.20;;;;;;5011711;28;20555;-64
2023/08/20 06:48:46;;;;;;;16.67;12.73;;;25.70;76.40;;;;;;5005212;28;20182;-63
2023/08/20 06:51:15;;;;;;;14.88;11.80;;;25.70;75.80;;;;;;5011422;28;20025;-66
2023/08/20 06:53:40;;;;;;;12.90;10.73;;;25.70;75.60;;;;;;5010905;28;20053;-60
2023/08/20 06:56:11;;;;;;;13.02;10.23;;;25.70;75.40;;;;;;5003315;28;20072;-67
2023/08/20 06:58:37;;;;;;;12.45;11.25;;;25.80;76.40;;;;;;5011418;28;20034;-66
2023/08/20 07:01:09;;;;;;;15.45;12.57;;;25.80;75.70;;;;;;5004305;28;20034;-68
2023/08/20 07:03:38;;;;;;;12.98;10.95;;;25.80;76.40;;;;;;4988418;28;20030;-65
2023/08/20 07:06:04;;;;;;;15.70;13.73;;;25.80;75.70;;;;;;5005854;28;20038;-67
2023/08/20 07:08:30;;;;;;;14.82;12.45;;;25.70;75.20;;;;;;5005462;28;20104;-66
2023/08/20 07:10:55;;;;;;;13.98;12.55;;;25.70;75.00;;;;;;4990651;28;20472;-65
2023/08/20 07:13:22;;;;;;;17.83;14.88;;;25.70;75.00;;;;;;4977562;28;20165;-65
2023/08/20 07:15:48;;;;;;;11.90;10.63;;;25.60;75.10;;;;;;4975098;28;20049;-66
2023/08/20 07:18:14;;;;;;;11.80;10.60;;;25.60;75.50;;;;;;4975167;28;20405;-68
2023/08/20 07:20:44;;;;;;;13.75;12.13;;;25.70;75.90;;;;;;5007829;28;20030;-64
2023/08/20 07:23:10;;;;;;;13.55;11.05;;;25.70;75.70;;;;;;5003248;28;20116;-65
2023/08/20 07:25:40;;;;;;;12.05;10.57;;;25.70;75.60;;;;;;4990490;28;20117;-67
2023/08/20 07:28:08;;;;;;;15.05;11.75;;;25.70;75.40;;;;;;5002447;28;20508;-68
2023/08/20 07:30:34;;;;;;;13.27;11.88;;;25.70;74.90;;;;;;4991351;28;20125;-66
2023/08/20 07:33:00;;;;;;;11.20;10.02;;;25.70;74.50;;;;;;5006579;28;20034;-65
2023/08/20 07:35:25;;;;;;;15.10;10.80;;;25.80;74.40;;;;;;5008777;28;20041;-64
2023/08/20 07:37:51;;;;;;;19.80;13.85;;;25.80;74.40;;;;;;4984455;28;20065;-66
2023/08/20 07:40:16;;;;;;;12.30;11.05;;;25.80;74.40;;;;;;4990712;28;20038;-65
2023/08/20 07:42:42;;;;;;;13.57;11.50;;;25.80;74.80;;;;;;5002438;28;20144;-65
2023/08/20 07:45:09;;;;;;;16.13;14.43;;;25.80;74.70;;;;;;5008434;28;20045;-65
2023/08/20 07:47:37;;;;;;;14.95;11.90;;;25.80;74.40;;;;;;4975413;28;20050;-69
2023/08/20 07:50:04;;;;;;;15.23;11.77;;;25.70;74.30;;;;;;4986493;28;20026;-65
2023/08/20 07:52:30;;;;;;;12.35;10.98;;;25.70;75.00;;;;;;4990629;28;20034;-66
2023/08/20 07:54:56;;;;;;;14.10;11.77;;;25.70;74.80;;;;;;4990597;28;20033;-62
2023/08/20 07:57:23;;;;;;;13.57;11.85;;;25.70;74.40;;;;;;4970472;28;20038;-68
2023/08/20 07:59:49;;;;;;;16.90;12.20;;;25.70;74.30;;;;;;4989227;28;20575;-65
2023/08/20 08:02:15;;;;;;;13.27;11.90;;;25.80;74.10;;;;;;4959593;28;20369;-64
2023/08/20 08:04:41;;;;;;;13.10;11.70;;;25.80;74.20;;;;;;4970728;28;20058;-64
2023/08/20 08:07:07;;;;;;;13.80;12.45;;;25.70;74.20;;;;;;4989671;28;20045;-67
2023/08/20 08:09:32;;;;;;;14.00;12.55;;;25.70;74.30;;;;;;4987575;28;20038;-65
2023/08/20 08:11:59;;;;;;;15.18;12.40;;;25.70;74.30;;;;;;4987358;28;20030;-66
2023/08/20 08:14:25;;;;;;;14.40;12.90;;;25.70;74.40;;;;;;4989439;28;20041;-66
2023/08/20 08:16:50;;;;;;;16.58;13.93;;;25.70;74.30;;;;;;4988623;28;20050;-64
2023/08/20 08:19:17;;;;;;;14.95;13.45;;;25.70;74.30;;;;;;4989101;28;20436;-65
2023/08/20 08:21:43;;;;;;;14.27;12.50;;;25.70;74.50;;;;;;5005597;28;20040;-67
2023/08/20 08:24:10;;;;;;;14.63;13.07;;;25.70;74.30;;;;;;4988887;28;20083;-64
2023/08/20 08:26:36;;;;;;;15.55;11.50;;;25.70;74.30;;;;;;4987952;28;20096;-66
2023/08/20 08:29:03;;;;;;;14.50;13.00;;;25.70;74.00;;;;;;5004655;28;20436;-64
2023/08/20 08:31:28;;;;;;;16.65;12.85;;;25.70;74.20;;;;;;4971139;28;20519;-64
2023/08/20 08:33:54;;;;;;;13.80;12.45;;;25.70;74.50;;;;;;4983675;28;20034;-66
2023/08/20 08:36:19;;;;;;;18.00;13.25;;;25.70;75.80;;;;;;4986971;28;20041;-64
2023/08/20 08:38:45;;;;;;;12.48;11.15;;;25.70;74.70;;;;;;5003495;28;20512;-65
2023/08/20 08:41:12;;;;;;;15.23;13.68;;;25.70;74.50;;;;;;5005614;28;20046;-65
2023/08/20 08:43:38;;;;;;;15.23;13.77;;;25.70;74.30;;;;;;4999503;28;20081;-63
2023/08/20 08:46:11;;;;;;;14.93;13.43;;;25.70;74.40;;;;;;4987592;28;20034;-65
2023/08/20 08:48:39;;;;;;;15.55;13.18;;;25.70;74.20;;;;;;4984148;28;20040;-67
2023/08/20 08:51:05;;;;;;;14.43;12.93;;;25.70;74.70;;;;;;4987095;28;20029;-64
2023/08/20 08:53:32;;;;;;;23.10;13.57;;;25.70;74.60;;;;;;4968403;28;20037;-67
2023/08/20 08:55:58;;;;;;;15.43;13.70;;;25.70;74.50;;;;;;4990675;28;20038;-65
2023/08/20 08:58:23;;;;;;;15.68;13.30;;;25.60;74.40;;;;;;4984190;28;20501;-66
2023/08/20 09:00:49;;;;;;;14.02;12.50;;;25.70;74.60;;;;;;4985673;28;20133;-67
2023/08/20 09:03:15;;;;;;;13.55;12.23;;;25.70;74.50;;;;;;4987057;28;20053;-65
2023/08/20 09:05:57;;;;;;;13.82;12.43;;;25.70;74.40;;;;;;4985902;28;20485;-66
2023/08/20 09:08:26;;;;;;;15.07;12.95;;;25.70;74.40;;;;;;4986289;28;20052;-66
2023/08/20 09:10:54;;;;;;;13.93;12.63;;;25.70;74.40;;;;;;4985344;28;20034;-65
2023/08/20 09:13:37;;;;;;;13.27;12.07;;;25.70;74.10;;;;;;4968251;28;20030;-65
2023/08/20 09:16:10;;;;;;;12.85;11.63;;;25.70;73.90;;;;;;5004127;28;20084;-65
2023/08/20 09:18:45;;;;;;;13.32;12.13;;;25.70;73.90;;;;;;4972731;28;20058;-66
2023/08/20 09:21:11;;;;;;;13.07;11.43;;;25.60;74.20;;;;;;4998626;28;20064;-66
2023/08/20 09:23:38;;;;;;;13.13;11.38;;;25.70;74.30;;;;;;4985411;28;20776;-66
2023/08/20 09:26:05;;;;;;;14.68;13.00;;;25.70;74.50;;;;;;5005990;28;20497;-68
2023/08/20 09:28:54;;;;;;;13.63;12.38;;;25.70;74.60;;;;;;4988855;28;20096;-66
2023/08/20 09:31:19;;;;;;;14.13;12.70;;;25.60;74.60;;;;;;4998812;28;20504;-66
2023/08/20 09:33:52;;;;;;;12.13;10.93;;;25.60;74.40;;;;;;5006085;28;20084;-66
2023/08/20 09:36:18;;;;;;;14.65;13.18;;;25.60;74.40;;;;;;5007398;28;20370;-66
2023/08/20 09:38:43;;;;;;;14.60;13.20;;;25.70;74.50;;;;;;4984974;28;20221;-64
2023/08/20 09:41:09;;;;;;;13.43;12.15;;;25.70;74.10;;;;;;5006431;28;20308;-65
2023/08/20 09:43:38;;;;;;;13.20;11.88;;;25.60;74.10;;;;;;4982349;28;20034;-64
2023/08/20 09:46:05;;;;;;;13.98;12.55;;;25.60;74.20;;;;;;4989020;28;20518;-65
2023/08/20 09:48:34;;;;;;;13.90;12.50;;;25.60;74.00;;;;;;5003576;28;20034;-66
2023/08/20 09:51:03;;;;;;;14.18;12.45;;;25.60;73.90;;;;;;5003654;28;20034;-66
2023/08/20 09:53:53;;;;;;;12.07;10.88;;;25.70;73.70;;;;;;4984797;28;20030;-65
2023/08/20 09:56:31;;;;;;;12.32;10.93;;;25.70;73.90;;;;;;4981419;28;20041;-68
2023/08/20 09:59:00;;;;;;;13.00;11.73;;;25.60;74.00;;;;;;4982181;28;20037;-67
2023/08/20 10:01:27;;;;;;;12.00;10.80;;;25.70;73.90;;;;;;4983765;28;20073;-63
2023/08/20 10:03:56;;;;;;;14.68;13.15;;;25.70;73.90;;;;;;4982812;28;20049;-66
2023/08/20 10:06:22;;;;;;;12.40;11.20;;;25.70;74.10;;;;;;4985692;28;20054;-66
2023/08/20 10:08:50;;;;;;;13.75;12.40;;;25.70;74.30;;;;;;4998886;28;21576;-68
2023/08/20 10:11:16;;;;;;;13.52;10.95;;;25.70;74.20;;;;;;4995066;28;20034;-66
2023/08/20 10:13:41;;;;;;;14.00;12.27;;;25.70;74.90;;;;;;4983090;28;20061;-67
2023/08/20 10:16:07;;;;;;;13.88;11.38;;;25.70;74.20;;;;;;4966666;28;20049;-68
2023/08/20 10:18:35;;;;;;;13.73;12.43;;;25.70;74.60;;;;;;4986819;28;20044;-68
2023/08/20 10:21:01;;;;;;;15.23;12.50;;;25.70;74.00;;;;;;4965638;28;20033;-66
2023/08/20 10:23:27;;;;;;;13.00;11.80;;;25.70;73.70;;;;;;4982969;28;20179;-68
2023/08/20 10:25:53;;;;;;;13.88;11.40;;;25.70;73.70;;;;;;5000590;28;20489;-67
2023/08/20 10:28:21;;;;;;;16.50;12.70;;;25.70;73.80;;;;;;4982423;28;20092;-67
2023/08/20 10:31:07;;;;;;;13.95;12.48;;;25.70;73.90;;;;;;4982059;28;20065;-66
2023/08/20 10:33:35;;;;;;;13.18;12.00;;;25.70;73.90;;;;;;4989208;28;20037;-65
2023/08/20 10:36:08;;;;;;;13.15;11.60;;;25.70;73.80;;;;;;5005644;28;20044;-66
2023/08/20 10:38:37;;;;;;;15.38;11.93;;;25.80;73.70;;;;;;4989800;28;20328;-65
2023/08/20 10:41:08;;;;;;;14.15;11.70;;;25.80;73.60;;;;;;4991802;28;20033;-65
2023/08/20 10:43:45;;;;;;;13.43;12.02;;;25.80;73.40;;;;;;4978678;28;20378;-66
2023/08/20 10:46:21;;;;;;;13.07;11.85;;;25.80;73.50;;;;;;4971981;28;20037;-66
2023/08/20 10:48:51;;;;;;;13.65;11.48;;;25.80;73.40;;;;;;4985396;28;20356;-66
2023/08/20 10:51:28;;;;;;;13.10;11.60;;;25.80;73.50;;;;;;5008131;28;20029;-67
2023/08/20 10:53:59;;;;;;;12.60;11.32;;;25.80;73.50;;;;;;5008049;28;20540;-68
2023/08/20 10:56:46;;;;;;;13.18;11.70;;;25.90;73.50;;;;;;5006393;28;20045;-66
2023/08/20 10:59:18;;;;;;;12.82;11.52;;;25.90;73.90;;;;;;4965409;28;20033;-66
2023/08/20 11:01:46;;;;;;;15.35;11.48;;;25.90;73.70;;;;;;4972304;28;20034;-66
2023/08/20 11:04:15;;;;;;;13.40;12.05;;;25.90;73.50;;;;;;4978389;28;20081;-65
2023/08/20 11:06:41;;;;;;;13.45;12.13;;;25.90;73.80;;;;;;4993726;28;20069;-64
2023/08/20 11:09:06;;;;;;;14.07;12.15;;;25.90;73.40;;;;;;4972886;28;20105;-66
2023/08/20 11:11:32;;;;;;;13.88;12.48;;;25.90;73.50;;;;;;4971520;28;20034;-66
2023/08/20 11:14:06;;;;;;;15.35;11.77;;;25.90;73.50;;;;;;4982818;28;20270;-64
2023/08/20 11:16:32;;;;;;;14.67;12.20;;;25.90;73.70;;;;;;4987697;28;20037;-65
2023/08/20 11:18:58;;;;;;;12.38;11.18;;;25.90;73.50;;;;;;4988491;28;20393;-66
2023/08/20 11:21:24;;;;;;;12.85;11.57;;;25.90;73.70;;;;;;5006316;28;20108;-65
2023/08/20 11:23:49;;;;;;;12.77;11.57;;;25.90;73.60;;;;;;4950636;28;20497;-65
2023/08/20 11:26:17;;;;;;;14.13;12.57;;;25.90;73.50;;;;;;5006214;28;20034;-67
2023/08/20 11:28:46;;;;;;;12.95;11.52;;;25.90;73.40;;;;;;5006288;28;20231;-65
2023/08/20 11:31:11;;;;;;;14.27;12.88;;;25.90;73.40;;;;;;5010706;28;20041;-65
2023/08/20 11:33:37;;;;;;;12.27;11.13;;;26.00;73.30;;;;;;4979437;28;20417;-67
2023/08/20 11:36:07;;;;;;;14.77;12.00;;;25.90;73.30;;;;;;5012480;28;20038;-66
2023/08/20 11:38:32;;;;;;;14.25;12.18;;;26.00;73.40;;;;;;4999904;28;20127;-66
2023/08/20 11:40:59;;;;;;;14.82;13.43;;;26.00;73.40;;;;;;4990632;28;20571;-68
2023/08/20 11:43:28;;;;;;;14.60;11.98;;;26.00;73.60;;;;;;5006749;28;20402;-66
2023/08/20 11:45:54;;;;;;;14.18;12.77;;;26.00;73.30;;;;;;4973682;28;20033;-69
2023/08/20 11:48:21;;;;;;;12.55;11.20;;;26.00;73.30;;;;;;4964760;28;20037;-65
2023/08/20 11:50:47;;;;;;;12.32;11.13;;;26.00;73.40;;;;;;4981326;28;20049;-67
2023/08/20 11:53:13;;;;;;;12.57;11.40;;;26.00;73.20;;;;;;4980973;28;20034;-67
2023/08/20 11:55:41;;;;;;;17.58;12.38;;;26.00;73.00;;;;;;5005674;28;20065;-66
2023/08/20 11:58:11;;;;;;;12.98;11.85;;;26.10;73.20;;;;;;5003136;28;20056;-68
2023/08/20 12:00:36;;;;;;;12.18;10.98;;;26.00;73.00;;;;;;5008149;28;20586;-65
2023/08/20 12:03:03;;;;;;;12.27;11.18;;;26.10;73.00;;;;;;5008299;28;20045;-67
2023/08/20 12:05:29;;;;;;;17.10;12.95;;;26.10;73.00;;;;;;5008766;28;20049;-65
2023/08/20 12:07:57;;;;;;;13.85;12.45;;;26.00;73.10;;;;;;5008945;28;20032;-64
2023/08/20 12:10:24;;;;;;;13.95;11.75;;;26.10;73.10;;;;;;5006470;28;20038;-64
2023/08/20 12:12:50;;;;;;;13.32;12.02;;;26.10;73.00;;;;;;5005324;28;20034;-65
2023/08/20 12:15:15;;;;;;;13.35;11.95;;;26.10;73.00;;;;;;5007396;28;20149;-65
2023/08/20 12:17:41;;;;;;;13.80;10.98;;;26.10;73.00;;;;;;5002276;28;20125;-63
2023/08/20 12:20:13;;;;;;;13.27;11.75;;;26.10;73.10;;;;;;5004730;28;20409;-67
2023/08/20 12:22:39;;;;;;;13.82;12.52;;;26.10;73.10;;;;;;5009707;28;20033;-65
2023/08/20 12:25:06;;;;;;;19.05;12.85;;;26.10;73.00;;;;;;5008469;28;20520;-64
2023/08/20 12:27:32;;;;;;;13.52;11.90;;;26.10;72.80;;;;;;5004722;28;20030;-63
2023/08/20 12:29:57;;;;;;;13.38;11.95;;;26.10;72.80;;;;;;5004178;28;20508;-64
2023/08/20 12:32:23;;;;;;;13.93;12.52;;;26.10;73.00;;;;;;5009990;28;20038;-64
2023/08/20 12:34:48;;;;;;;13.82;12.35;;;26.20;73.40;;;;;;5008523;28;20038;-65